EDT,Max TemperatureF,Mean TemperatureF,Min TemperatureF,Max Dew PointF,MeanDew PointF,Min DewpointF,Max Humidity, Mean Humidity, Min Humidity, Max Sea Level PressureIn, Mean Sea Level PressureIn, Min Sea Level PressureIn, Max VisibilityMiles, Mean VisibilityMiles, Min VisibilityMiles, Max Wind SpeedMPH, Mean Wind SpeedMPH, Max Gust SpeedMPH,PrecipitationIn, CloudCover, Events, WindDirDegrees
2012-3-1,52,41,30,48,31,25,86,71,57,29.94,29.74,29.55,10,10,10,23,16,37,0.00,7,,269
2012-3-2,44,36,28,43,34,25,100,86,65,29.97,29.74,29.51,10,8,2,25,11,44,0.28,4,Rain-Thunderstorm,157
2012-3-3,48,38,28,46,30,17,100,72,45,29.76,29.60,29.47,10,10,10,23,13,36,0.00,5,,249
2012-3-4,30,27,23,25,20,14,100,81,54,29.85,29.71,29.63,10,5,0,22,13,30,0.06,8,Fog-Snow,276
2012-3-5,24,22,19,23,18,10,100,85,63,30.46,30.01,29.77,10,4,0,22,8,31,0.04,8,Fog-Snow,285
2012-3-6,39,26,15,21,16,10,88,62,45,30.61,30.48,30.35,10,10,10,14,8,,0.00,3,,195
2012-3-7,60,50,39,36,24,13,54,36,26,30.45,30.35,30.22,10,10,10,21,10,25,0.00,0,,206
2012-3-8,59,47,34,49,42,30,100,79,54,30.22,30.04,29.91,10,8,2,31,16,41,0.53,6,Rain,233
2012-3-9,35,30,24,28,20,13,82,67,52,30.37,30.19,30.01,10,10,10,25,19,40,0.00,4,,284
2012-3-10,37,28,18,16,10,7,72,51,30,30.56,30.47,30.29,10,10,10,21,12,28,0.00,1,,274
2012-3-11,60,47,34,23,18,11,40,30,22,30.47,30.39,30.31,10,10,10,12,7,17,0.00,0,,226
2012-3-12,64,54,45,52,38,21,100,67,26,30.32,30.19,30.07,10,8,2,13,7,20,0.24,5,Rain,209
2012-3-13,66,58,53,52,49,40,94,74,46,30.09,30.04,30.00,10,10,10,20,14,34,0.00,6,,253
2012-3-14,68,56,45,42,37,25,71,49,27,30.22,30.17,30.09,10,10,10,16,8,23,0.00,0,,271
2012-3-15,69,62,55,46,42,38,65,51,40,30.21,30.16,30.11,10,10,10,16,6,22,0.01,1,,218
2012-3-16,66,60,53,54,51,46,94,78,59,30.21,30.15,30.11,10,10,8,15,8,22,0.09,4,Rain,258
2012-3-17,70,60,50,53,47,40,96,67,36,30.29,30.24,30.21,10,9,5,10,3,16,0.00,0,,163
2012-3-18,68,59,52,56,53,49,89,81,65,30.28,30.22,30.16,10,8,1,13,7,,0.25,5,Rain-Thunderstorm,177
2012-3-19,62,58,53,56,53,50,100,92,75,30.20,30.17,30.12,10,8,2,8,4,,0.06,6,Rain,194
2012-3-20,70,60,53,54,53,51,100,88,56,30.27,30.22,30.18,10,6,2,9,3,,0.01,5,,153
2012-3-21,62,56,51,55,53,52,100,90,77,30.32,30.28,30.24,10,7,1,14,5,25,0.00,6,,136
2012-3-22,75,65,55,56,52,46,97,76,40,30.26,30.19,30.10,10,8,4,8,6,,0.00,4,,165
2012-3-23,75,65,55,58,53,47,100,70,39,30.14,30.04,29.94,10,9,2,15,5,24,0.04,1,Rain-Thunderstorm,145
2012-3-24,57,55,48,56,54,48,100,97,77,29.98,29.90,29.85,10,4,0,13,5,20,0.99,8,Fog-Rain-Thunderstorm,108
2012-3-25,57,52,46,52,50,47,100,93,72,29.90,29.84,29.81,10,5,0,17,7,,0.02,8,Fog-Rain,321
2012-3-26,48,39,28,46,26,6,90,61,33,30.27,30.05,29.89,10,10,10,26,18,37,0.00,2,,320
2012-3-27,50,34,19,16,9,2,62,38,15,30.36,30.27,30.09,10,10,10,12,7,,0.00,0,,236
2012-3-28,66,54,45,52,40,12,94,58,26,30.06,29.81,29.66,10,9,2,24,13,43,0.33,3,Rain-Thunderstorm,250
2012-3-29,46,40,32,37,31,26,80,69,55,30.09,29.95,29.79,10,10,10,32,15,40,0.00,4,,304
2012-3-30,57,42,27,45,34,24,100,75,45,30.08,29.91,29.74,10,8,2,13,7,20,0.47,4,Rain-Thunderstorm,142
2012-3-31,52,46,39,52,44,36,100,93,76,29.91,29.77,29.70,10,5,0,15,8,23,0.08,8,Fog-Rain-Thunderstorm,268